createdAt,value
2018-12-21T00:01:06.137Z,6.50
2018-12-21T00:03:44.478Z,6.50
2018-12-21T00:06:22.771Z,6.50
2018-12-21T00:09:03.370Z,6.40
2018-12-21T00:11:39.548Z,6.40
2018-12-21T00:14:14.549Z,6.40
2018-12-21T00:16:52.397Z,6.40
2018-12-21T00:19:26.706Z,6.40
2018-12-21T00:22:04.881Z,6.50
2018-12-21T00:24:40.921Z,6.40
2018-12-21T00:27:21.720Z,6.40
2018-12-21T00:30:00.073Z,6.50
2018-12-21T00:41:14.184Z,6.50
2018-12-21T00:43:58.572Z,6.50
2018-12-21T00:46:40.794Z,6.50
2018-12-21T00:49:17.398Z,6.50
2018-12-21T00:51:52.345Z,6.40
2018-12-21T00:54:30.325Z,6.40
2018-12-21T00:57:06.860Z,6.40
2018-12-21T00:59:43.280Z,6.40
2018-12-21T01:02:17.689Z,6.40
2018-12-21T01:04:55.740Z,6.40
2018-12-21T01:07:36.213Z,6.40
2018-12-21T01:10:12.919Z,6.40
2018-12-21T01:12:50.980Z,6.40
2018-12-21T01:15:31.313Z,6.40
2018-12-21T01:18:07.780Z,6.50
2018-12-21T01:20:45.666Z,6.50
2018-12-21T01:23:20.016Z,6.50
2018-12-21T01:25:57.838Z,6.50
2018-12-21T01:28:35.759Z,6.50
2018-12-21T01:31:16.163Z,6.50
2018-12-21T01:33:53.007Z,6.50
2018-12-21T01:36:28.980Z,6.50
2018-12-21T01:39:07.061Z,6.50
2018-12-21T01:41:45.366Z,6.50
2018-12-21T01:44:21.394Z,6.50
2018-12-21T01:46:57.299Z,6.50
2018-12-21T01:52:27.496Z,6.50
2018-12-21T01:55:07.959Z,6.50
2018-12-21T01:57:48.856Z,6.50
2018-12-21T02:00:27.570Z,6.50
2018-12-21T02:03:07.751Z,6.50
2018-12-21T02:05:44.312Z,6.60
2018-12-21T02:08:20.520Z,6.50
2018-12-21T02:10:56.439Z,6.50
2018-12-21T02:13:32.423Z,6.60
2018-12-21T02:16:07.153Z,6.60
2018-12-21T02:18:41.799Z,6.60
2018-12-21T02:21:18.423Z,6.50
2018-12-21T02:23:54.345Z,6.50
2018-12-21T02:26:30.301Z,6.50
2018-12-21T02:29:08.489Z,6.60
2018-12-21T02:31:45.142Z,6.50
2018-12-21T02:34:21.604Z,6.60
2018-12-21T02:36:58.196Z,6.50
2018-12-21T02:39:36.102Z,6.50
2018-12-21T02:42:11.320Z,6.60
2018-12-21T02:44:49.236Z,6.60
2018-12-21T02:47:24.112Z,6.60
2018-12-21T02:50:01.973Z,6.60
2018-12-21T02:52:37.812Z,6.60
2018-12-21T02:55:13.887Z,6.60
2018-12-21T02:57:49.854Z,6.60
2018-12-21T03:00:25.900Z,6.60
2018-12-21T03:03:00.687Z,6.60
2018-12-21T03:05:40.951Z,6.60
2018-12-21T03:08:17.000Z,6.60
2018-12-21T03:10:54.921Z,6.60
2018-12-21T03:16:23.782Z,6.60
2018-12-21T03:18:59.824Z,6.60
2018-12-21T03:21:34.138Z,6.60
2018-12-21T03:24:08.932Z,6.60
2018-12-21T03:26:49.377Z,6.60
2018-12-21T03:29:25.901Z,6.60
2018-12-21T03:32:03.860Z,6.60
2018-12-21T03:34:40.071Z,6.60
2018-12-21T03:37:14.878Z,6.60
2018-12-21T03:39:51.333Z,6.60
2018-12-21T03:42:27.383Z,6.60
2018-12-21T03:45:07.939Z,6.60
2018-12-21T03:47:44.384Z,6.60
2018-12-21T03:50:20.321Z,6.60
2018-12-21T03:52:58.123Z,6.60
2018-12-21T03:55:34.295Z,6.60
2018-12-21T03:58:12.431Z,6.60
2018-12-21T04:00:50.434Z,6.60
2018-12-21T04:03:31.074Z,6.60
2018-12-21T04:06:09.611Z,6.60
2018-12-21T04:08:45.511Z,6.60
2018-12-21T04:11:23.440Z,6.60
2018-12-21T04:14:02.061Z,6.60
2018-12-21T04:16:42.478Z,6.70
2018-12-21T04:19:19.266Z,6.70
2018-12-21T04:21:57.021Z,6.70
2018-12-21T04:24:32.976Z,6.70
2018-12-21T04:27:10.812Z,6.70
2018-12-21T04:29:46.846Z,6.70
2018-12-21T04:32:22.961Z,6.70
2018-12-21T04:35:00.775Z,6.70
2018-12-21T04:37:38.929Z,6.70
2018-12-21T04:40:15.485Z,6.70
2018-12-21T04:42:53.453Z,6.70
2018-12-21T04:45:31.431Z,6.70
2018-12-21T04:48:07.567Z,6.70
2018-12-21T04:50:48.712Z,6.70
2018-12-21T04:53:26.701Z,6.70
2018-12-21T04:56:04.729Z,6.70
2018-12-21T04:58:45.217Z,6.70
2018-12-21T05:01:21.800Z,6.70
2018-12-21T05:04:02.163Z,6.70
2018-12-21T05:09:31.491Z,6.60
2018-12-21T05:12:07.544Z,6.60
2018-12-21T05:14:43.619Z,6.70
2018-12-21T05:17:19.589Z,6.70
2018-12-21T05:19:55.716Z,6.60
2018-12-21T05:22:31.783Z,6.60
2018-12-21T05:25:09.136Z,6.60
2018-12-21T05:27:45.050Z,6.60
2018-12-21T05:33:16.101Z,6.60
2018-12-21T05:35:52.114Z,6.60
2018-12-21T05:38:28.242Z,6.60
2018-12-21T05:41:03.295Z,6.60
2018-12-21T05:43:41.102Z,6.60
2018-12-21T05:46:19.285Z,6.60
2018-12-21T05:48:57.081Z,6.60
2018-12-21T05:51:33.185Z,6.60
2018-12-21T05:54:09.215Z,6.60
2018-12-21T05:56:45.867Z,6.70
2018-12-21T05:59:23.706Z,6.60
2018-12-21T06:04:54.402Z,6.70
2018-12-21T06:07:31.027Z,6.70
2018-12-21T06:10:10.338Z,6.60
2018-12-21T06:12:44.875Z,6.60
2018-12-21T06:15:22.773Z,6.70
2018-12-21T06:18:00.792Z,6.70
2018-12-21T06:20:36.954Z,6.70
2018-12-21T06:26:08.934Z,6.70
2018-12-21T06:28:45.261Z,6.70
2018-12-21T06:31:23.152Z,6.70
2018-12-21T06:33:59.313Z,6.70
2018-12-21T06:39:30.147Z,6.70
2018-12-21T06:42:08.027Z,6.70
2018-12-21T06:44:44.221Z,6.70
2018-12-21T06:47:20.831Z,6.70
2018-12-21T06:49:58.849Z,6.70
2018-12-21T06:55:29.595Z,6.70
2018-12-21T06:58:07.706Z,6.70
2018-12-21T07:00:42.576Z,6.70
2018-12-21T07:03:20.440Z,6.80
2018-12-21T07:05:58.352Z,6.80
2018-12-21T07:08:34.492Z,6.80
2018-12-21T07:11:12.385Z,6.80
2018-12-21T07:13:48.979Z,6.80
2018-12-21T07:16:27.034Z,6.80
2018-12-21T07:19:08.189Z,6.80
2018-12-21T07:21:45.073Z,6.80
2018-12-21T07:24:29.833Z,6.80
2018-12-21T07:27:06.338Z,6.80
2018-12-21T07:29:42.930Z,6.90
2018-12-21T07:32:18.001Z,6.80
2018-12-21T07:34:56.085Z,6.90
2018-12-21T07:37:34.166Z,6.90
2018-12-21T07:42:59.371Z,6.90
2018-12-21T07:45:37.352Z,6.90
2018-12-21T07:48:15.186Z,6.90
2018-12-21T07:54:03.575Z,6.90
2018-12-21T07:56:39.679Z,6.90
2018-12-21T07:59:26.921Z,6.90
2018-12-21T08:02:11.862Z,6.90
2018-12-21T08:04:48.215Z,7.00
2018-12-21T08:07:23.209Z,7.00
2018-12-21T08:09:57.982Z,7.00
2018-12-21T08:12:34.735Z,7.00
2018-12-21T08:15:11.443Z,7.00
2018-12-21T08:17:50.266Z,7.00
2018-12-21T08:20:28.122Z,7.00
2018-12-21T08:23:06.603Z,7.00
2018-12-21T08:25:42.736Z,7.10
2018-12-21T08:31:14.519Z,7.10
2018-12-21T08:33:54.779Z,7.10
2018-12-21T08:36:31.095Z,7.10
2018-12-21T08:39:07.314Z,7.10
2018-12-21T08:41:48.392Z,7.10
2018-12-21T08:44:27.171Z,7.10
2018-12-21T08:47:05.161Z,7.20
2018-12-21T08:49:45.496Z,7.20
2018-12-21T08:52:24.709Z,7.20
2018-12-21T08:55:00.914Z,7.20
2018-12-21T08:57:37.043Z,7.20
2018-12-21T09:00:18.622Z,7.20
2018-12-21T09:02:53.191Z,7.20
2018-12-21T09:05:29.131Z,7.20
2018-12-21T09:08:07.094Z,7.20
2018-12-21T09:10:43.133Z,7.30
2018-12-21T09:13:21.835Z,7.30
2018-12-21T09:16:00.054Z,7.30
2018-12-21T09:18:36.006Z,7.30
2018-12-21T09:21:11.867Z,7.30
2018-12-21T09:23:49.921Z,7.30
2018-12-21T09:26:26.680Z,7.40
2018-12-21T09:29:02.766Z,7.40
2018-12-21T09:31:38.802Z,7.40
2018-12-21T09:34:15.529Z,7.40
2018-12-21T09:36:52.252Z,7.40
2018-12-21T09:42:23.927Z,7.40
2018-12-21T09:45:07.565Z,7.40
2018-12-21T09:47:45.362Z,7.50
2018-12-21T09:50:23.468Z,7.50
2018-12-21T09:53:01.345Z,7.50
2018-12-21T09:55:45.432Z,7.50
2018-12-21T09:58:22.028Z,7.60
2018-12-21T10:00:58.111Z,7.60
2018-12-21T10:03:36.016Z,7.60
2018-12-21T10:06:12.659Z,7.60
2018-12-21T10:08:48.539Z,7.60
2018-12-21T10:11:23.866Z,7.70
2018-12-21T10:14:01.677Z,7.70
2018-12-21T10:16:39.683Z,7.70
2018-12-21T10:19:16.889Z,7.70
2018-12-21T10:21:53.716Z,7.80
2018-12-21T10:24:30.534Z,7.80
2018-12-21T10:29:59.907Z,7.90
2018-12-21T10:32:36.504Z,7.90
2018-12-21T10:35:14.428Z,7.90
2018-12-21T10:37:52.201Z,7.90
2018-12-21T10:40:28.629Z,8.00
2018-12-21T10:43:05.313Z,8.00
2018-12-21T10:45:43.108Z,8.00
2018-12-21T10:48:21.116Z,8.00
2018-12-21T10:50:58.109Z,8.00
2018-12-21T10:53:36.604Z,8.10
2018-12-21T11:08:26.948Z,8.20
2018-12-21T11:11:03.280Z,8.30
2018-12-21T11:13:38.178Z,8.40
2018-12-21T11:16:18.412Z,8.40
2018-12-21T11:18:54.378Z,8.40
2018-12-21T11:21:30.479Z,8.50
2018-12-21T11:24:08.271Z,8.50
2018-12-21T11:26:46.209Z,8.50
2018-12-21T11:32:14.503Z,8.50
2018-12-21T11:34:54.892Z,8.60
2018-12-21T11:37:35.619Z,8.60
2018-12-21T11:40:12.657Z,8.70
2018-12-21T11:43:08.268Z,8.70
2018-12-21T11:45:44.928Z,8.80
2018-12-21T11:48:21.137Z,8.90
2018-12-21T11:50:59.110Z,9.00
2018-12-21T11:53:35.146Z,9.10
2018-12-21T11:56:12.046Z,9.20
2018-12-21T11:58:48.680Z,9.30
2018-12-21T12:04:19.631Z,9.50
2018-12-21T12:06:56.247Z,9.70
2018-12-21T12:12:25.917Z,10.00
2018-12-21T12:15:02.737Z,10.20
2018-12-21T12:17:39.797Z,10.30
2018-12-21T12:20:16.924Z,10.40
2018-12-21T12:22:53.056Z,10.50
2018-12-21T12:25:33.470Z,10.60
2018-12-21T12:28:09.913Z,10.70
2018-12-21T12:30:48.732Z,10.80
2018-12-21T12:33:27.016Z,10.90
2018-12-21T12:36:03.623Z,11.00
2018-12-21T12:41:35.185Z,11.10
2018-12-21T12:44:13.341Z,11.10
2018-12-21T12:46:51.713Z,11.20
2018-12-21T12:52:21.770Z,11.30
2018-12-21T12:55:03.002Z,11.40
2018-12-21T12:57:37.089Z,11.40
2018-12-21T13:03:08.116Z,11.50
2018-12-21T13:05:43.190Z,11.50
2018-12-21T13:08:19.849Z,11.50
2018-12-21T13:10:56.517Z,11.50
2018-12-21T13:13:33.762Z,11.60
2018-12-21T13:16:10.105Z,11.60
2018-12-21T13:18:48.052Z,11.60
2018-12-21T13:21:29.517Z,11.60
2018-12-21T13:24:10.110Z,11.60
2018-12-21T13:26:46.552Z,11.60
2018-12-21T13:29:25.260Z,11.70
2018-12-21T13:34:58.749Z,11.70
2018-12-21T13:37:37.538Z,11.70
2018-12-21T13:40:16.487Z,11.70
2018-12-21T13:42:53.778Z,11.70
2018-12-21T13:48:24.690Z,11.70
2018-12-21T13:51:03.647Z,11.70
2018-12-21T13:53:42.490Z,11.80
2018-12-21T13:56:20.461Z,11.70
2018-12-21T13:59:00.674Z,11.80
2018-12-21T14:04:29.662Z,11.80
2018-12-21T14:07:14.152Z,11.80
2018-12-21T14:09:54.936Z,11.80
2018-12-21T14:12:31.271Z,11.80
2018-12-21T14:15:09.611Z,11.80
2018-12-21T14:17:46.064Z,11.80
2018-12-21T14:20:30.632Z,11.80
2018-12-21T14:23:07.139Z,11.80
2018-12-21T14:25:43.264Z,11.80
2018-12-21T14:31:15.401Z,11.80
2018-12-21T14:33:56.152Z,11.80
2018-12-21T14:36:39.070Z,11.80
2018-12-21T14:39:21.165Z,11.80
2018-12-21T14:50:53.870Z,11.80
2018-12-21T15:02:29.793Z,11.70
2018-12-21T15:05:08.121Z,11.70
2018-12-21T15:10:36.972Z,11.60
2018-12-21T15:13:14.919Z,11.60
2018-12-21T15:18:43.909Z,11.50
2018-12-21T15:21:24.308Z,11.50
2018-12-21T15:23:58.915Z,11.50
2018-12-21T15:26:44.039Z,11.50
2018-12-21T15:32:25.730Z,11.50
2018-12-21T15:35:01.800Z,11.40
2018-12-21T15:37:42.228Z,11.40
2018-12-21T15:40:18.841Z,11.40
2018-12-21T15:42:53.450Z,11.40
2018-12-21T15:45:39.966Z,11.30
2018-12-21T15:48:20.753Z,11.30
2018-12-21T15:50:57.442Z,11.30
2018-12-21T15:53:38.096Z,11.30
2018-12-21T15:59:07.379Z,11.20
2018-12-21T16:04:31.257Z,11.10
2018-12-21T16:07:08.030Z,11.10
2018-12-21T16:09:53.862Z,11.10
2018-12-21T16:12:38.933Z,11.10
2018-12-21T16:15:16.418Z,11.10
2018-12-21T16:20:47.735Z,11.10
2018-12-21T16:23:26.005Z,11.00
2018-12-21T16:26:03.616Z,11.00
2018-12-21T16:28:38.860Z,11.00
2018-12-21T16:31:20.806Z,10.90
2018-12-21T16:33:56.933Z,10.90
2018-12-21T16:39:17.267Z,10.90
2018-12-21T16:41:55.637Z,10.80
2018-12-21T16:44:36.239Z,10.80
2018-12-21T16:47:22.272Z,10.80
2018-12-21T16:50:00.707Z,10.80
2018-12-21T16:52:41.119Z,10.80
2018-12-21T16:55:17.420Z,10.70
2018-12-21T16:57:53.529Z,10.70
2018-12-21T17:00:29.643Z,10.70
2018-12-21T17:03:05.877Z,10.60
2018-12-21T17:05:40.925Z,10.70
2018-12-21T17:08:17.005Z,10.70
2018-12-21T17:11:06.673Z,10.70
2018-12-21T17:13:45.120Z,10.70
2018-12-21T17:16:23.908Z,10.60
2018-12-21T17:19:00.240Z,10.60
2018-12-21T17:21:36.316Z,10.60
2018-12-21T17:24:11.280Z,10.60
2018-12-21T17:26:49.711Z,10.60
2018-12-21T17:32:18.724Z,10.60
2018-12-21T17:34:56.616Z,10.60
2018-12-21T17:40:38.866Z,10.60
2018-12-21T17:43:15.361Z,10.60
2018-12-21T17:45:56.544Z,10.60
2018-12-21T17:48:38.168Z,10.60
2018-12-21T17:51:16.126Z,10.60
2018-12-21T17:53:54.140Z,10.60
2018-12-21T17:56:30.971Z,10.60
2018-12-21T17:59:06.956Z,10.50
2018-12-21T18:01:43.084Z,10.50
2018-12-21T18:04:23.571Z,10.50
2018-12-21T18:09:53.682Z,10.50
2018-12-21T18:12:29.652Z,10.50
2018-12-21T18:15:12.886Z,10.50
2018-12-21T18:17:47.982Z,10.50
2018-12-21T18:20:25.231Z,10.50
2018-12-21T18:23:02.841Z,10.50
2018-12-21T18:25:38.898Z,10.40
2018-12-21T18:28:23.426Z,10.40
2018-12-21T18:31:03.081Z,10.40
2018-12-21T18:33:39.941Z,10.40
2018-12-21T18:36:18.884Z,10.40
2018-12-21T18:38:57.309Z,10.40
2018-12-21T18:41:48.184Z,10.40
2018-12-21T18:47:21.090Z,10.40
2018-12-21T18:50:01.716Z,10.40
2018-12-21T18:52:42.323Z,10.40
2018-12-21T18:55:20.959Z,10.40
2018-12-21T18:57:57.313Z,10.40
2018-12-21T19:03:26.659Z,10.40
2018-12-21T19:09:10.391Z,10.30
2018-12-21T19:11:46.808Z,10.30
2018-12-21T19:14:22.892Z,10.20
2018-12-21T19:17:03.480Z,10.20
2018-12-21T19:22:34.250Z,10.10
2018-12-21T19:25:12.228Z,10.00
2018-12-21T19:27:50.202Z,10.00
2018-12-21T19:30:26.372Z,9.90
2018-12-21T19:33:02.980Z,9.90
2018-12-21T19:35:41.720Z,9.90
2018-12-21T19:41:14.841Z,9.90
2018-12-21T19:43:53.322Z,10.00
2018-12-21T19:46:31.205Z,10.00
2018-12-21T19:52:00.228Z,10.00
2018-12-21T19:54:40.814Z,9.90
2018-12-21T19:57:19.227Z,9.90
2018-12-21T19:59:56.126Z,9.90
2018-12-21T20:02:32.857Z,9.90
2018-12-21T20:05:09.066Z,9.90
2018-12-21T20:07:47.694Z,9.90
2018-12-21T20:10:23.787Z,9.90
2018-12-21T20:13:00.560Z,9.90
2018-12-21T20:15:38.474Z,9.90
2018-12-21T20:18:14.586Z,9.90
2018-12-21T20:20:50.507Z,9.90
2018-12-21T20:23:28.713Z,9.90
2018-12-21T20:26:06.617Z,9.80
2018-12-21T20:28:44.504Z,9.80
2018-12-21T20:31:22.549Z,9.80
2018-12-21T20:34:02.999Z,9.80
2018-12-21T20:36:39.202Z,9.80
2018-12-21T20:39:21.339Z,9.80
2018-12-21T20:42:02.308Z,9.80
2018-12-21T20:44:38.446Z,9.80
2018-12-21T20:47:17.340Z,9.80
2018-12-21T20:49:53.898Z,9.80
2018-12-21T20:52:31.943Z,9.70
2018-12-21T20:55:12.415Z,9.70
2018-12-21T20:57:53.397Z,9.70
2018-12-21T21:03:26.341Z,9.70
2018-12-21T21:06:12.989Z,9.80
2018-12-21T21:08:41.791Z,9.80
2018-12-21T21:11:24.397Z,9.80
2018-12-21T21:13:57.741Z,9.70
2018-12-21T21:16:38.098Z,9.70
2018-12-21T21:22:07.120Z,9.70
2018-12-21T21:24:43.394Z,9.70
2018-12-21T21:27:21.457Z,9.70
2018-12-21T21:29:59.271Z,9.70
2018-12-21T21:32:36.186Z,9.70
2018-12-21T21:35:12.929Z,9.70
2018-12-21T21:37:57.471Z,9.70
2018-12-21T21:40:34.345Z,9.70
2018-12-21T21:43:12.082Z,9.70
2018-12-21T21:45:50.099Z,9.70
2018-12-21T21:48:28.404Z,9.70
2018-12-21T21:53:57.583Z,9.70
2018-12-21T21:56:35.543Z,9.70
2018-12-21T21:59:11.566Z,9.70
2018-12-21T22:01:51.809Z,9.70
2018-12-21T22:04:28.299Z,9.70
2018-12-21T22:07:06.272Z,9.70
2018-12-21T22:09:44.296Z,9.60
2018-12-21T22:12:19.231Z,9.60
2018-12-21T22:15:00.407Z,9.60
2018-12-21T22:17:37.070Z,9.60
2018-12-21T22:20:15.183Z,9.60
2018-12-21T22:22:53.771Z,9.60
2018-12-21T22:25:31.740Z,9.70
2018-12-21T22:28:07.836Z,9.60
2018-12-21T22:30:44.043Z,9.60
2018-12-21T22:33:22.040Z,9.60
2018-12-21T22:35:58.731Z,9.60
2018-12-21T22:38:35.357Z,9.60
2018-12-21T22:41:13.330Z,9.60
2018-12-21T22:43:49.220Z,9.60
2018-12-21T22:46:25.407Z,9.60
2018-12-21T22:49:03.316Z,9.60
2018-12-21T22:51:40.015Z,9.60
2018-12-21T22:54:16.049Z,9.60
2018-12-21T22:56:52.545Z,9.60
2018-12-21T22:59:29.198Z,9.60
2018-12-21T23:04:58.243Z,9.60
2018-12-21T23:07:36.071Z,9.60
2018-12-21T23:10:14.144Z,9.60
2018-12-21T23:12:50.384Z,9.50
2018-12-21T23:18:19.015Z,9.50
2018-12-21T23:20:55.823Z,9.50
2018-12-21T23:23:31.876Z,9.50
2018-12-21T23:26:14.443Z,9.50
2018-12-21T23:28:52.262Z,9.50
2018-12-21T23:31:28.471Z,9.50
2018-12-21T23:34:04.845Z,9.50
2018-12-21T23:36:42.721Z,9.50
2018-12-21T23:39:19.454Z,9.50
2018-12-21T23:41:55.784Z,9.50
2018-12-21T23:44:32.519Z,9.50
2018-12-21T23:47:10.446Z,9.50
2018-12-21T23:49:48.296Z,9.50
2018-12-21T23:52:24.717Z,9.50
2018-12-21T23:55:03.036Z,9.50
